Time;durP1;ratioP1;P1;durP2;ratioP2;P2;SDS_P1;SDS_P2;PMS_P1;PMS_P2;Temp;Humidity;BMP_temperature;BMP_pressure;BME280_temperature;BME280_humidity;BME280_pressure;Samples;Min_cycle;Max_cycle;Signal;HPM_P1;HPM_P2
2023/01/30 00:01:43;;;;;;;1.50;0.77;;;;;;;6.42;98.00;101914.09;5055873;27;96661;-28
2023/01/30 00:04:11;;;;;;;0.25;0.25;;;;;;;6.45;98.92;101926.59;5055593;27;96814;-30
2023/01/30 00:06:37;;;;;;;3.30;0.75;;;;;;;6.45;98.31;101926.59;5055375;27;101021;-28
2023/01/30 00:09:02;;;;;;;0.47;0.43;;;;;;;6.50;98.60;101935.41;5056429;27;97409;-28
2023/01/30 00:11:28;;;;;;;1.20;0.40;;;;;;;6.53;98.23;101940.69;5056938;27;96598;-28
2023/01/30 00:13:54;;;;;;;1.10;0.45;;;;;;;6.53;98.59;101943.41;5057486;27;96700;-28
2023/01/30 00:16:19;;;;;;;2.20;0.50;;;;;;;6.55;98.38;101929.00;5056276;27;105135;-29
2023/01/30 00:18:45;;;;;;;1.25;0.70;;;;;;;6.58;97.98;101915.44;5056667;27;97893;-28
2023/01/30 00:21:13;;;;;;;0.95;0.43;;;;;;;6.59;98.55;101913.63;5056405;27;96638;-28
2023/01/30 00:23:39;;;;;;;0.65;0.32;;;;;;;6.64;98.29;101922.47;5055076;27;96907;-29
2023/01/30 00:26:06;;;;;;;0.70;0.50;;;;;;;6.62;98.26;101924.31;5055894;27;98857;-28
2023/01/30 00:28:31;;;;;;;0.90;0.50;;;;;;;6.65;98.39;101923.34;5054949;27;100835;-28
2023/01/30 00:30:57;;;;;;;0.40;0.38;;;;;;;6.67;98.16;101913.41;5056456;27;96589;-29
2023/01/30 00:33:25;;;;;;;0.90;0.43;;;;;;;6.70;98.04;101907.97;5055540;27;96754;-29
2023/01/30 00:35:52;;;;;;;0.88;0.55;;;;;;;6.71;98.08;101902.50;5054663;27;103299;-29
2023/01/30 00:38:18;;;;;;;0.28;0.20;;;;;;;6.72;97.88;101904.28;5054931;27;101176;-28
2023/01/30 00:40:43;;;;;;;0.50;0.50;;;;;;;6.73;97.97;101889.91;5055074;27;96535;-28
2023/01/30 00:48:44;;;;;;;0.50;0.30;;;;;;;6.74;98.04;101897.03;5056218;27;97013;-28
2023/01/30 00:51:09;;;;;;;0.55;0.22;;;;;;;6.72;98.49;101882.75;5056162;27;96457;-28
2023/01/30 00:53:34;;;;;;;2.10;0.60;;;;;;;6.76;97.98;101884.41;5056283;27;96990;-28
2023/01/30 00:56:00;;;;;;;1.95;0.68;;;;;;;6.80;97.62;101883.41;5055759;27;97963;-28
2023/01/30 00:58:26;;;;;;;0.50;0.35;;;;;;;6.84;97.37;101880.63;5056219;27;97797;-29
2023/01/30 01:00:51;;;;;;;3.75;0.45;;;;;;;6.85;97.42;101877.88;5056067;27;97312;-30
2023/01/30 01:03:17;;;;;;;0.75;0.47;;;;;;;6.86;97.07;101881.44;5054818;27;96868;-29
2023/01/30 01:05:43;;;;;;;0.95;0.50;;;;;;;6.89;97.06;101868.78;5055951;27;97913;-29
2023/01/30 01:08:09;;;;;;;0.65;0.47;;;;;;;6.89;97.04;101876.88;5055874;27;97763;-28
2023/01/30 01:10:35;;;;;;;1.02;0.43;;;;;;;6.92;97.20;101854.34;5054286;27;96771;-29
2023/01/30 01:13:00;;;;;;;0.95;0.38;;;;;;;6.93;96.85;101848.03;5054674;27;96831;-28
2023/01/30 01:15:26;;;;;;;0.63;0.47;;;;;;;6.89;96.87;101828.41;5055511;27;99426;-28
2023/01/30 01:17:52;;;;;;;0.25;0.17;;;;;;;6.90;96.72;101819.38;5055316;27;98200;-29
2023/01/30 01:20:19;;;;;;;1.95;0.60;;;;;;;6.88;96.77;101810.47;5054414;27;96749;-28
2023/01/30 01:22:45;;;;;;;0.63;0.52;;;;;;;6.92;96.39;101817.53;5054284;27;96869;-28
2023/01/30 01:25:10;;;;;;;0.20;0.20;;;;;;;6.93;96.54;101808.50;5053449;27;101138;-28
2023/01/30 01:27:37;;;;;;;1.27;0.47;;;;;;;6.92;96.57;101793.28;5055688;27;99182;-28
2023/01/30 01:30:04;;;;;;;1.50;0.30;;;;;;;6.92;96.44;101801.34;5054327;27;96653;-28
2023/01/30 01:32:29;;;;;;;1.40;0.65;;;;;;;6.93;96.44;101808.50;5054178;27;96873;-29
2023/01/30 01:34:54;;;;;;;0.40;0.17;;;;;;;6.91;96.35;101826.53;5055056;27;97348;-29
2023/01/30 01:37:20;;;;;;;0.30;0.30;;;;;;;6.91;96.17;101813.09;5055115;27;106429;-28
2023/01/30 01:42:33;;;;;;;0.93;0.40;;;;;;;6.88;95.92;101815.84;5055974;27;96500;-29
2023/01/30 01:45:10;;;;;;;0.43;0.25;;;;;;;6.90;96.19;101821.19;5054788;27;97322;-29
2023/01/30 01:47:37;;;;;;;1.83;0.55;;;;;;;6.86;95.95;101814.13;5053607;27;100983;-28
2023/01/30 01:50:04;;;;;;;0.30;0.25;;;;;;;6.85;95.93;101807.00;5055450;27;96599;-30
2023/01/30 01:52:29;;;;;;;2.58;0.45;;;;;;;6.88;96.18;101814.97;5054360;27;96788;-28
2023/01/30 01:55:00;;;;;;;1.52;0.47;;;;;;;6.89;95.73;101819.41;5055078;27;97877;-28
2023/01/30 01:57:41;;;;;;;0.45;0.35;;;;;;;6.90;95.58;101822.06;5055079;27;97274;-29
2023/01/30 02:00:10;;;;;;;0.38;0.30;;;;;;;6.87;95.75;101808.72;5055037;27;96679;-29
2023/01/30 02:02:39;;;;;;;0.93;0.45;;;;;;;6.90;95.58;101810.41;5055217;27;96785;-29
2023/01/30 02:05:05;;;;;;;0.22;0.22;;;;;;;6.91;95.66;101823.84;5053592;27;101057;-28
2023/01/30 02:07:46;;;;;;;0.43;0.38;;;;;;;6.91;95.80;101814.88;5053498;27;101041;-28
2023/01/30 02:10:44;;;;;;;3.30;0.77;;;;;;;6.93;95.78;101823.78;5053937;27;96638;-29
2023/01/30 02:13:09;;;;;;;0.47;0.45;;;;;;;6.94;96.00;101821.06;5029502;27;96782;-30
2023/01/30 02:15:34;;;;;;;0.22;0.20;;;;;;;6.93;96.03;101823.78;5054416;27;106833;-29
2023/01/30 02:18:00;;;;;;;0.85;0.52;;;;;;;6.90;95.66;101818.50;5055118;27;97417;-30
2023/01/30 02:20:52;;;;;;;0.68;0.40;;;;;;;6.90;96.13;101811.28;5055245;27;96512;-29
2023/01/30 02:23:30;;;;;;;3.90;0.43;;;;;;;6.90;96.47;101814.00;5053588;27;96813;-28
2023/01/30 02:26:23;;;;;;;1.90;0.47;;;;;;;6.90;96.56;101805.91;5053877;27;100925;-28
2023/01/30 02:29:20;;;;;;;0.93;0.35;;;;;;;6.87;96.95;101786.28;5054710;27;97851;-28
2023/01/30 02:32:02;;;;;;;0.40;0.38;;;;;;;6.89;96.88;101792.47;5055017;27;96588;-29
2023/01/30 02:34:40;;;;;;;0.57;0.20;;;;;;;6.88;96.76;101796.13;5053459;27;96653;-28
2023/01/30 02:37:30;;;;;;;0.47;0.30;;;;;;;6.85;97.00;101796.22;5054374;27;100072;-29
2023/01/30 02:40:17;;;;;;;1.48;0.40;;;;;;;6.89;96.82;101798.78;5054835;27;97362;-30
2023/01/30 02:42:51;;;;;;;2.00;0.40;;;;;;;6.88;96.79;101797.00;5053493;27;96704;-28
2023/01/30 02:45:29;;;;;;;0.50;0.32;;;;;;;6.88;96.62;101799.69;5053738;27;96769;-30
2023/01/30 02:48:08;;;;;;;1.88;0.38;;;;;;;6.90;96.87;101789.75;5053113;27;100902;-28
2023/01/30 02:50:52;;;;;;;1.08;0.47;;;;;;;6.92;96.45;101784.31;5052925;27;101086;-28
2023/01/30 02:53:18;;;;;;;0.22;0.20;;;;;;;6.97;96.70;101795.84;5052964;27;96870;-28
2023/01/30 02:55:43;;;;;;;1.38;0.28;;;;;;;6.98;96.37;101790.41;5054379;27;96822;-30
2023/01/30 02:58:10;;;;;;;0.22;0.22;;;;;;;6.95;96.23;101784.22;5058320;27;97450;-29
2023/01/30 03:00:53;;;;;;;1.27;0.30;;;;;;;7.00;96.55;101777.75;5056336;27;101185;-29
2023/01/30 03:04:00;;;;;;;0.30;0.10;;;;;;;6.99;96.41;101778.69;5058401;27;96640;-28
2023/01/30 03:07:01;;;;;;;0.45;0.32;;;;;;;7.00;96.85;101779.56;5058223;27;96899;-30
2023/01/30 03:09:46;;;;;;;0.43;0.25;;;;;;;6.98;96.83;101776.03;5032002;27;97931;-28
2023/01/30 03:12:17;;;;;;;0.20;0.20;;;;;;;7.01;96.72;101784.03;5056611;27;100791;-29
2023/01/30 03:14:54;;;;;;;3.77;0.60;;;;;;;7.02;97.10;101778.59;5057802;27;96695;-29
2023/01/30 03:17:23;;;;;;;1.77;0.50;;;;;;;7.03;96.80;101774.06;5057702;27;96620;-29
2023/01/30 03:19:50;;;;;;;0.30;0.25;;;;;;;7.02;97.02;101783.09;5055526;27;100945;-29
2023/01/30 03:22:15;;;;;;;0.75;0.28;;;;;;;7.01;96.74;101779.53;5056025;27;100771;-29
2023/01/30 03:24:41;;;;;;;3.47;0.57;;;;;;;7.02;97.23;101780.41;5057203;27;96813;-29
2023/01/30 03:27:10;;;;;;;0.98;0.40;;;;;;;7.03;96.77;101768.69;5056027;27;96738;-28
2023/01/30 03:29:36;;;;;;;2.55;0.82;;;;;;;7.05;97.00;101761.44;5055972;27;101166;-28
2023/01/30 03:32:02;;;;;;;0.25;0.25;;;;;;;7.04;96.85;101764.22;5057238;27;99335;-28
2023/01/30 03:34:27;;;;;;;0.47;0.32;;;;;;;7.07;96.72;101766.78;5057679;27;96419;-29
2023/01/30 03:36:53;;;;;;;2.60;0.63;;;;;;;7.08;96.56;101760.47;5058043;27;96753;-30
2023/01/30 03:39:18;;;;;;;0.35;0.32;;;;;;;7.09;97.15;101756.84;5057188;27;97894;-28
2023/01/30 03:41:44;;;;;;;1.35;0.47;;;;;;;7.09;97.04;101768.50;5057014;27;99395;-30
2023/01/30 03:44:09;;;;;;;0.52;0.30;;;;;;;7.10;96.58;101764.88;5057021;27;96458;-29
2023/01/30 03:46:35;;;;;;;0.65;0.30;;;;;;;7.11;96.25;101757.69;5057289;27;96760;-29
2023/01/30 03:49:00;;;;;;;0.38;0.28;;;;;;;7.13;96.56;101758.53;5057277;27;97795;-28
2023/01/30 03:51:25;;;;;;;1.85;0.40;;;;;;;7.14;96.70;101749.50;5056873;27;99242;-29
2023/01/30 03:53:51;;;;;;;1.73;0.55;;;;;;;7.13;96.52;101764.78;5057333;27;96462;-28
2023/01/30 03:56:16;;;;;;;3.35;0.38;;;;;;;7.14;96.76;101761.16;5056821;27;96852;-30
2023/01/30 03:58:41;;;;;;;0.40;0.25;;;;;;;7.14;96.62;101773.75;5056998;27;97553;-31
2023/01/30 04:01:07;;;;;;;1.00;0.28;;;;;;;7.17;96.75;101761.03;5057384;27;97708;-28
2023/01/30 04:03:32;;;;;;;0.22;0.22;;;;;;;7.17;96.15;101762.84;5057278;27;96563;-29
2023/01/30 04:05:58;;;;;;;0.60;0.50;;;;;;;7.19;96.38;101756.50;5056942;27;96856;-28
2023/01/30 04:08:23;;;;;;;0.73;0.32;;;;;;;7.18;96.31;101762.81;5056246;27;97329;-28
2023/01/30 04:10:49;;;;;;;0.73;0.50;;;;;;;7.18;96.42;101759.25;5056617;27;97812;-29
2023/01/30 04:13:14;;;;;;;0.30;0.30;;;;;;;7.20;96.32;101749.31;5056846;27;96567;-29
2023/01/30 04:15:39;;;;;;;1.02;0.40;;;;;;;7.17;96.38;101744.88;5057080;27;96742;-29
2023/01/30 04:18:05;;;;;;;0.13;0.13;;;;;;;7.19;96.02;101759.19;5056571;27;98377;-28
2023/01/30 04:20:30;;;;;;;1.08;0.40;;;;;;;7.17;96.44;101761.03;5056485;27;99115;-29
2023/01/30 04:22:55;;;;;;;0.95;0.40;;;;;;;7.16;96.72;101763.81;5056467;27;96807;-28
2023/01/30 04:25:21;;;;;;;0.22;0.20;;;;;;;7.19;96.54;101761.88;5056173;27;96871;-30
2023/01/30 04:27:46;;;;;;;0.30;0.25;;;;;;;7.20;96.60;101766.34;5056659;27;97351;-28
2023/01/30 04:30:12;;;;;;;0.80;0.38;;;;;;;7.17;96.70;101771.81;5056649;27;97914;-30
2023/01/30 04:32:37;;;;;;;1.58;0.40;;;;;;;7.16;96.19;101767.38;5056197;27;96651;-28
2023/01/30 04:35:02;;;;;;;0.20;0.13;;;;;;;7.11;96.19;101780.13;5055022;27;96970;-29
2023/01/30 04:37:28;;;;;;;1.17;0.30;;;;;;;7.15;96.41;101776.41;5056042;27;99235;-29
2023/01/30 04:39:53;;;;;;;0.55;0.17;;;;;;;7.10;95.56;101770.25;5056095;27;103209;-30
2023/01/30 04:42:18;;;;;;;0.10;0.10;;;;;;;7.10;95.49;101781.03;5056286;27;96601;-31
2023/01/30 04:44:44;;;;;;;1.52;0.57;;;;;;;7.12;95.21;101781.00;5056409;27;96784;-29
2023/01/30 04:47:09;;;;;;;0.30;0.03;;;;;;;7.09;94.93;101784.66;5055881;27;99291;-28
2023/01/30 04:49:34;;;;;;;1.48;0.20;;;;;;;7.06;95.00;101779.38;5056552;27;107542;-30
2023/01/30 04:52:00;;;;;;;0.08;0.08;;;;;;;7.06;94.81;101789.28;5056522;27;96619;-28
2023/01/30 04:54:25;;;;;;;1.25;0.38;;;;;;;7.04;94.25;101791.16;5056375;27;96717;-28
2023/01/30 04:56:50;;;;;;;0.50;0.25;;;;;;;7.03;93.62;101787.53;5055248;27;97801;-28
2023/01/30 04:59:16;;;;;;;1.35;0.30;;;;;;;7.01;93.49;101786.75;5055976;27;97957;-29
2023/01/30 05:01:41;;;;;;;0.20;0.20;;;;;;;7.05;92.61;101807.22;5056388;27;96506;-30
2023/01/30 05:04:07;;;;;;;0.60;0.40;;;;;;;7.04;91.44;101794.72;5056150;27;96756;-29
2023/01/30 05:06:33;;;;;;;1.13;0.20;;;;;;;7.05;90.18;101804.53;5055921;27;97831;-28
2023/01/30 05:08:58;;;;;;;0.60;0.20;;;;;;;7.07;89.12;101812.59;5054100;27;100993;-28
2023/01/30 05:11:26;;;;;;;1.73;0.15;;;;;;;7.08;89.60;101804.47;5056305;27;96497;-29
2023/01/30 05:13:52;;;;;;;0.13;0.13;;;;;;;7.09;88.90;101798.13;5056091;27;96785;-28
2023/01/30 05:16:19;;;;;;;0.10;0.10;;;;;;;7.10;88.90;101786.41;5054287;27;100799;-29
2023/01/30 05:18:44;;;;;;;0.10;0.10;;;;;;;7.08;88.54;101804.47;5053529;27;100787;-29
2023/01/30 05:21:13;;;;;;;0.25;0.10;;;;;;;7.06;88.33;101786.59;5055342;27;96842;-29
2023/01/30 05:23:39;;;;;;;0.20;0.10;;;;;;;7.06;88.36;101795.56;5054201;27;96898;-28
2023/01/30 05:26:04;;;;;;;0.17;0.15;;;;;;;7.02;88.16;101788.47;5055153;27;97482;-28
2023/01/30 05:28:31;;;;;;;0.93;0.20;;;;;;;7.00;87.87;101783.13;5053983;27;100957;-29
2023/01/30 05:31:07;;;;;;;0.82;0.30;;;;;;;6.99;87.41;101794.84;5055767;27;96715;-29
2023/01/30 05:33:32;;;;;;;1.98;0.40;;;;;;;6.94;87.90;101786.03;5054423;27;96771;-28
2023/01/30 05:35:58;;;;;;;0.35;0.30;;;;;;;6.93;88.19;101786.06;5055307;27;97995;-29
2023/01/30 05:38:24;;;;;;;0.68;0.32;;;;;;;6.93;87.95;101791.47;5054330;27;100700;-29
2023/01/30 05:41:00;;;;;;;1.95;0.30;;;;;;;6.85;87.98;101790.84;5054307;27;96534;-28
2023/01/30 05:43:26;;;;;;;2.15;0.50;;;;;;;6.86;88.11;101796.16;5054179;27;96937;-28
2023/01/30 05:45:53;;;;;;;1.25;0.43;;;;;;;6.82;88.00;101816.03;5053333;27;98991;-29
2023/01/30 05:48:19;;;;;;;0.15;0.05;;;;;;;6.79;88.35;101817.03;5053848;27;100939;-28
2023/01/30 05:50:44;;;;;;;0.38;0.20;;;;;;;6.79;88.18;101824.19;5055506;27;97142;-28
2023/01/30 05:53:10;;;;;;;0.35;0.20;;;;;;;6.77;88.59;101812.63;5055308;27;96829;-28
2023/01/30 05:55:35;;;;;;;2.88;0.43;;;;;;;6.75;88.62;101818.03;5054939;27;105876;-29
2023/01/30 05:58:00;;;;;;;0.22;0.20;;;;;;;6.73;88.86;101817.19;5054691;27;109507;-29
2023/01/30 06:00:26;;;;;;;1.45;0.50;;;;;;;6.70;88.94;101820.00;5055487;27;96552;-29
2023/01/30 06:02:51;;;;;;;0.68;0.40;;;;;;;6.72;88.97;101825.31;5055886;27;96748;-31
2023/01/30 06:05:16;;;;;;;2.58;0.60;;;;;;;6.70;89.61;101808.34;5054407;27;107218;-29
2023/01/30 06:07:41;;;;;;;1.10;0.25;;;;;;;6.69;89.54;101809.25;5055072;27;98662;-29
2023/01/30 06:10:07;;;;;;;4.15;0.68;;;;;;;6.66;89.54;101812.91;5054480;27;99326;-28
2023/01/30 06:12:33;;;;;;;1.75;0.50;;;;;;;6.66;89.52;101810.22;5053770;27;96805;-28
2023/01/30 06:14:58;;;;;;;1.02;0.20;;;;;;;6.64;89.55;101806.69;5054909;27;97313;-28
2023/01/30 06:17:23;;;;;;;0.75;0.13;;;;;;;6.61;89.60;101820.25;5054514;27;98740;-28
2023/01/30 06:19:49;;;;;;;1.05;0.45;;;;;;;6.58;88.74;101826.63;5055182;27;96678;-30
2023/01/30 06:22:14;;;;;;;3.95;0.40;;;;;;;6.57;88.58;101822.16;5054896;27;96792;-28
2023/01/30 06:24:39;;;;;;;1.80;0.38;;;;;;;6.53;88.57;101806.13;5053572;27;103298;-28
2023/01/30 06:27:05;;;;;;;0.32;0.10;;;;;;;6.52;88.52;101801.69;5054994;27;99458;-28
2023/01/30 06:29:30;;;;;;;0.65;0.38;;;;;;;6.49;87.63;101815.25;5055172;27;96461;-29
2023/01/30 06:31:55;;;;;;;0.52;0.38;;;;;;;6.45;87.48;101819.81;5056988;27;99263;-28
2023/01/30 06:34:21;;;;;;;1.88;0.50;;;;;;;6.44;87.79;101815.38;5057596;27;101912;-31
2023/01/30 06:36:46;;;;;;;1.27;0.43;;;;;;;6.43;87.52;101826.16;5058030;27;102563;-31
2023/01/30 06:39:11;;;;;;;1.88;0.52;;;;;;;6.38;87.11;101835.25;5058120;27;103223;-32
2023/01/30 06:41:36;;;;;;;1.23;0.52;;;;;;;6.39;86.74;101828.06;5058440;27;96739;-31
2023/01/30 06:44:02;;;;;;;2.20;0.38;;;;;;;6.34;85.43;101819.22;5058200;27;102975;-31
2023/01/30 06:46:27;;;;;;;1.13;0.43;;;;;;;6.33;85.59;101809.41;5057957;27;99140;-31
2023/01/30 06:48:53;;;;;;;1.13;0.30;;;;;;;6.35;85.85;101815.63;5058617;27;96542;-32
2023/01/30 06:51:18;;;;;;;2.72;0.22;;;;;;;6.32;85.39;101824.66;5058544;27;96725;-32
2023/01/30 06:53:43;;;;;;;1.65;0.68;;;;;;;6.28;84.31;101806.84;5057908;27;98747;-31
2023/01/30 06:56:08;;;;;;;3.38;0.60;;;;;;;6.29;84.49;101816.69;5057405;27;98804;-32
2023/01/30 06:58:34;;;;;;;3.63;0.52;;;;;;;6.27;84.62;101834.69;5057571;27;96490;-31
2023/01/30 07:01:00;;;;;;;0.82;0.47;;;;;;;6.22;83.07;101827.66;5057950;27;97862;-31
2023/01/30 07:03:26;;;;;;;0.52;0.20;;;;;;;6.21;83.40;101834.84;5057771;27;97895;-31
2023/01/30 07:05:51;;;;;;;0.63;0.25;;;;;;;6.20;82.08;101845.63;5057669;27;97273;-31
2023/01/30 07:08:16;;;;;;;1.98;0.43;;;;;;;6.17;82.90;101862.75;5058227;27;96429;-31
2023/01/30 07:10:43;;;;;;;2.72;0.32;;;;;;;6.17;82.12;101868.13;5057836;27;96795;-31
2023/01/30 07:13:08;;;;;;;1.42;0.20;;;;;;;6.14;82.07;101858.31;5056193;27;100817;-32
2023/01/30 07:15:34;;;;;;;0.47;0.20;;;;;;;6.14;81.20;101874.47;5058216;27;97367;-31
2023/01/30 07:17:59;;;;;;;1.38;0.35;;;;;;;6.11;81.43;101855.72;5057604;27;96682;-31
2023/01/30 07:20:25;;;;;;;2.05;0.20;;;;;;;6.09;80.92;101865.66;5056419;27;96855;-31
2023/01/30 07:22:51;;;;;;;0.85;0.38;;;;;;;6.07;81.21;101861.22;5056572;27;99686;-32
2023/01/30 07:25:18;;;;;;;5.75;0.80;;;;;;;6.08;81.92;101871.97;5056722;27;97294;-32
2023/01/30 07:27:51;;;;;;;0.52;0.32;;;;;;;6.08;80.69;101874.66;5055299;27;96744;-31
2023/01/30 07:30:16;;;;;;;1.33;0.65;;;;;;;6.09;81.52;101860.25;5056475;27;96695;-31
2023/01/30 07:32:42;;;;;;;0.05;0.05;;;;;;;6.10;80.87;101858.44;5056132;27;97871;-31
2023/01/30 07:35:07;;;;;;;0.70;0.45;;;;;;;6.04;80.09;101854.13;5056463;27;97818;-31
2023/01/30 07:37:33;;;;;;;0.30;0.20;;;;;;;6.07;79.87;101877.38;5056551;27;96646;-31
2023/01/30 07:39:58;;;;;;;2.72;0.47;;;;;;;6.09;80.77;101872.84;5056977;27;96664;-31
2023/01/30 07:42:23;;;;;;;1.40;0.32;;;;;;;6.08;80.80;101882.72;5055786;27;107858;-31
2023/01/30 07:44:49;;;;;;;2.60;0.65;;;;;;;6.11;80.38;101879.06;5055948;27;99490;-31
2023/01/30 07:47:14;;;;;;;0.55;0.38;;;;;;;6.11;80.08;101889.81;5055910;27;96588;-31
2023/01/30 07:49:39;;;;;;;0.40;0.20;;;;;;;6.09;80.01;101871.03;5056043;27;96785;-30
2023/01/30 07:52:05;;;;;;;2.00;0.60;;;;;;;6.09;80.57;101868.34;5056023;27;106002;-31
2023/01/30 07:54:30;;;;;;;0.50;0.20;;;;;;;6.11;80.35;101876.38;5055980;27;97829;-31
2023/01/30 07:56:55;;;;;;;0.98;0.28;;;;;;;6.12;80.32;101881.69;5055822;27;98660;-31
2023/01/30 07:59:21;;;;;;;2.45;0.30;;;;;;;6.13;80.75;101877.22;5056287;27;96711;-31
2023/01/30 08:01:46;;;;;;;0.28;0.10;;;;;;;6.13;80.47;101883.47;5055711;27;102874;-31
2023/01/30 08:04:11;;;;;;;2.88;0.25;;;;;;;6.17;81.43;101884.25;5056108;27;98050;-31
2023/01/30 08:06:38;;;;;;;3.42;0.47;;;;;;;6.14;80.63;101898.69;5056053;27;96610;-31
2023/01/30 08:09:04;;;;;;;1.35;0.32;;;;;;;6.15;80.54;101904.97;5054527;27;96767;-31
2023/01/30 08:11:29;;;;;;;0.85;0.40;;;;;;;6.19;80.98;101922.78;5053723;27;100754;-31
2023/01/30 08:13:54;;;;;;;0.50;0.20;;;;;;;6.20;80.84;101921.88;5055703;27;97337;-31
2023/01/30 08:16:20;;;;;;;3.58;0.52;;;;;;;6.22;80.49;101916.44;5055472;27;99015;-32
2023/01/30 08:18:45;;;;;;;4.25;0.45;;;;;;;6.20;80.18;101919.19;5055794;27;96738;-31
2023/01/30 08:21:10;;;;;;;0.52;0.20;;;;;;;6.19;79.40;101916.50;5053776;27;102602;-31
2023/01/30 08:23:36;;;;;;;0.30;0.22;;;;;;;6.22;79.45;101900.28;5055415;27;96999;-32
2023/01/30 08:26:02;;;;;;;0.13;0.13;;;;;;;6.20;79.27;101903.03;5015053;27;1154602;-31
2023/01/30 08:28:29;;;;;;;0.73;0.30;;;;;;;6.22;79.24;101908.34;5055653;27;96866;-31
2023/01/30 08:30:55;;;;;;;0.80;0.28;;;;;;;6.22;78.99;101916.44;5056188;27;99601;-36
2023/01/30 08:33:21;;;;;;;0.35;0.13;;;;;;;6.27;78.65;101909.09;5056304;27;97854;-31
2023/01/30 08:35:46;;;;;;;0.57;0.13;;;;;;;6.25;79.37;101922.63;5056335;27;96552;-31
2023/01/30 08:38:12;;;;;;;1.27;0.55;;;;;;;6.29;79.42;101918.03;5056540;27;96680;-31
2023/01/30 08:40:38;;;;;;;3.17;0.52;;;;;;;6.31;78.86;101917.06;5056312;27;98036;-30
2023/01/30 08:43:03;;;;;;;0.08;0.08;;;;;;;6.34;79.22;101916.09;5056311;27;97246;-31
2023/01/30 08:45:29;;;;;;;2.28;0.10;;;;;;;6.35;79.06;101924.13;5055109;27;96607;-31
2023/01/30 08:47:59;;;;;;;3.33;0.45;;;;;;;6.38;78.67;101942.88;5056247;27;96764;-31
2023/01/30 08:50:25;;;;;;;4.22;0.47;;;;;;;6.40;79.27;101947.34;5056191;27;97960;-31
2023/01/30 08:52:50;;;;;;;0.68;0.28;;;;;;;6.42;78.73;101948.22;5056240;27;97841;-31
2023/01/30 08:55:16;;;;;;;5.25;0.55;;;;;;;6.42;78.64;101941.00;5055488;27;96699;-31
2023/01/30 08:57:42;;;;;;;0.40;0.15;;;;;;;6.45;78.35;101954.38;5056237;27;96847;-31
2023/01/30 09:00:08;;;;;;;0.98;0.45;;;;;;;6.52;79.02;101958.66;5055525;27;97923;-32
2023/01/30 09:02:33;;;;;;;0.95;0.20;;;;;;;6.57;78.29;101961.25;5055592;27;97758;-31
2023/01/30 09:04:59;;;;;;;0.90;0.20;;;;;;;6.61;77.63;101953.97;5056352;27;96542;-30
2023/01/30 09:07:24;;;;;;;0.85;0.17;;;;;;;6.63;78.00;101974.53;5056461;27;96589;-31
2023/01/30 09:09:50;;;;;;;1.10;0.25;;;;;;;6.69;77.19;101965.41;5054313;27;100911;-31
2023/01/30 09:12:15;;;;;;;1.45;0.45;;;;;;;6.72;75.84;101960.84;5055234;27;109052;-31
2023/01/30 09:14:40;;;;;;;0.28;0.28;;;;;;;6.76;75.92;101970.56;5056276;27;96502;-31
2023/01/30 09:17:06;;;;;;;0.52;0.40;;;;;;;6.78;75.66;101984.88;5055785;27;98584;-31
2023/01/30 09:19:31;;;;;;;1.55;0.28;;;;;;;6.86;76.26;101989.19;5056027;27;97252;-30
2023/01/30 09:21:56;;;;;;;0.25;0.22;;;;;;;6.86;76.17;101999.94;5055729;27;97936;-31
2023/01/30 09:24:26;;;;;;;1.25;0.47;;;;;;;6.83;75.96;101986.56;5054882;27;96856;-31
2023/01/30 09:26:53;;;;;;;1.42;0.45;;;;;;;6.86;76.57;101991.88;5055908;27;96621;-31
2023/01/30 09:29:18;;;;;;;0.82;0.43;;;;;;;6.88;76.17;101996.28;5053789;27;100772;-31
2023/01/30 09:31:44;;;;;;;1.05;0.28;;;;;;;6.91;76.85;101988.16;5055510;27;97748;-31
2023/01/30 09:34:09;;;;;;;1.13;0.50;;;;;;;6.97;76.96;101987.06;5055785;27;96567;-31
2023/01/30 09:36:34;;;;;;;0.63;0.30;;;;;;;7.04;76.33;101985.97;5055361;27;99775;-31
2023/01/30 09:39:00;;;;;;;2.45;0.77;;;;;;;7.14;75.62;102000.94;5055579;27;97792;-31
2023/01/30 09:41:34;;;;;;;2.95;0.10;;;;;;;7.23;75.66;102007.88;5055596;27;101535;-30
2023/01/30 09:44:02;;;;;;;0.75;0.20;;;;;;;7.29;75.33;102009.50;5055613;27;97163;-31
2023/01/30 09:46:36;;;;;;;1.63;0.17;;;;;;;7.32;74.08;102017.53;5055599;27;96747;-31
2023/01/30 09:49:07;;;;;;;1.10;0.43;;;;;;;7.35;75.19;102023.69;5053240;27;101059;-32
2023/01/30 09:51:42;;;;;;;0.55;0.28;;;;;;;7.35;75.06;102026.38;5053729;27;100742;-32
2023/01/30 09:54:33;;;;;;;0.70;0.32;;;;;;;7.32;74.72;102029.19;5054152;27;96730;-31
2023/01/30 09:57:12;;;;;;;1.25;0.45;;;;;;;7.27;75.74;102024.84;5053690;27;96772;-31
2023/01/30 09:59:51;;;;;;;0.57;0.17;;;;;;;7.28;74.91;102029.31;5055238;27;97234;-31
2023/01/30 10:02:32;;;;;;;0.98;0.43;;;;;;;7.29;74.30;102028.38;5053666;27;99270;-31
2023/01/30 10:04:58;;;;;;;0.35;0.10;;;;;;;7.31;74.08;102018.44;5055280;27;96619;-31
2023/01/30 10:07:37;;;;;;;1.65;0.20;;;;;;;7.36;74.36;102040.75;5055639;27;96834;-31
2023/01/30 10:10:33;;;;;;;3.13;0.68;;;;;;;7.59;75.04;102054.44;5053530;27;100986;-31
2023/01/30 10:13:31;;;;;;;0.60;0.38;;;;;;;7.59;73.36;102056.25;5053671;27;99206;-31
2023/01/30 10:16:05;;;;;;;1.15;0.40;;;;;;;7.65;74.23;102054.25;5045532;27;96785;-31
2023/01/30 10:18:43;;;;;;;1.88;0.47;;;;;;;7.66;72.78;102071.31;5053665;27;96842;-31
2023/01/30 10:21:13;;;;;;;1.48;0.43;;;;;;;7.63;73.81;102069.59;5055061;27;97938;-33
2023/01/30 10:23:43;;;;;;;2.90;0.57;;;;;;;7.61;73.64;102074.16;5054409;27;98757;-31
2023/01/30 10:26:13;;;;;;;0.10;0.00;;;;;;;7.56;73.24;102064.44;5053130;27;96801;-31
2023/01/30 10:28:46;;;;;;;1.23;0.43;;;;;;;7.54;73.57;102071.69;5053574;27;96782;-31
2023/01/30 10:31:17;;;;;;;1.42;0.30;;;;;;;7.52;73.75;102090.59;5053282;27;100885;-31
2023/01/30 10:33:56;;;;;;;0.32;0.10;;;;;;;7.48;73.75;102091.59;5053558;27;100860;-31
2023/01/30 10:36:47;;;;;;;0.85;0.30;;;;;;;7.48;73.30;102083.50;5053547;27;96509;-32
2023/01/30 10:39:21;;;;;;;2.85;0.25;;;;;;;7.56;73.18;102068.00;5053661;27;96765;-31
2023/01/30 10:41:54;;;;;;;0.90;0.60;;;;;;;7.93;74.18;102080.38;5054112;27;97934;-31
2023/01/30 10:44:21;;;;;;;4.32;0.73;;;;;;;8.07;73.16;102079.97;5053054;27;100684;-31
2023/01/30 10:47:21;;;;;;;0.68;0.35;;;;;;;7.97;71.76;102081.19;5054851;27;96461;-30
2023/01/30 10:49:57;;;;;;;0.28;0.10;;;;;;;7.94;72.21;102081.28;5055009;27;96745;-30
2023/01/30 10:52:54;;;;;;;3.63;0.65;;;;;;;7.93;71.98;102088.47;5052770;27;98925;-31
2023/01/30 10:55:33;;;;;;;0.95;0.25;;;;;;;7.88;72.25;102090.44;5050320;27;100770;-31
2023/01/30 10:58:26;;;;;;;0.52;0.22;;;;;;;7.86;72.83;102098.59;5053142;27;96594;-31
2023/01/30 11:01:19;;;;;;;0.35;0.28;;;;;;;7.71;71.54;102093.63;5053638;27;96744;-32
2023/01/30 11:03:54;;;;;;;1.10;0.50;;;;;;;7.67;72.17;102091.94;5054351;27;97414;-30
2023/01/30 11:06:24;;;;;;;1.33;0.68;;;;;;;7.62;72.64;102097.47;5052885;27;100844;-29
2023/01/30 11:08:52;;;;;;;2.92;0.65;;;;;;;7.62;73.12;102093.91;5052654;27;96565;-30
2023/01/30 11:11:30;;;;;;;1.95;0.45;;;;;;;7.65;73.13;102091.09;5052981;27;96857;-29
2023/01/30 11:14:05;;;;;;;3.50;0.30;;;;;;;7.63;73.21;102093.00;5052683;27;100925;-29
2023/01/30 11:16:39;;;;;;;0.08;0.08;;;;;;;7.56;72.65;102099.50;5052924;27;100959;-30
2023/01/30 11:19:05;;;;;;;2.28;0.17;;;;;;;7.56;73.44;102102.19;5056559;27;96650;-30
2023/01/30 11:21:31;;;;;;;1.48;0.10;;;;;;;7.55;73.61;102095.88;5056473;27;96881;-30
2023/01/30 11:24:03;;;;;;;3.28;0.63;;;;;;;7.56;73.99;102078.81;5057150;27;99033;-30
2023/01/30 11:26:32;;;;;;;0.55;0.25;;;;;;;7.54;73.64;102106.72;5057812;27;97270;-29
2023/01/30 11:28:58;;;;;;;2.30;0.52;;;;;;;7.58;73.92;102089.53;5056353;27;96665;-28
2023/01/30 11:31:29;;;;;;;0.63;0.13;;;;;;;7.53;73.25;102087.00;5057906;27;96740;-28
2023/01/30 11:34:15;;;;;;;3.30;0.70;;;;;;;7.57;74.20;102099.44;5055374;27;101061;-28
2023/01/30 11:36:41;;;;;;;2.33;0.38;;;;;;;7.58;74.06;102089.53;5055549;27;100698;-29
2023/01/30 11:39:12;;;;;;;0.35;0.35;;;;;;;7.55;73.53;102093.19;5057478;27;96668;-28
2023/01/30 11:41:54;;;;;;;1.67;0.22;;;;;;;7.57;73.86;102103.94;5057776;27;96488;-29
2023/01/30 11:44:25;;;;;;;0.47;0.23;;;;;;;7.58;73.60;102103.91;5057062;27;99285;-29
2023/01/30 11:46:51;;;;;;;1.15;0.22;;;;;;;7.57;73.77;102085.06;5055677;27;100499;-28
2023/01/30 11:49:20;;;;;;;2.22;0.60;;;;;;;7.59;73.86;102092.19;5057768;27;96501;-29